sensor_id;sensor_type;location;lat;lon;timestamp;P1;durP1;ratioP1;P2;durP2;ratioP2
58842;SDS011;44614;54.356;10.100;2022-12-10T00:00:16;25.90;;;13.37;;
58842;SDS011;44614;54.356;10.100;2022-12-10T00:02:42;20.92;;;10.23;;
58842;SDS011;44614;54.356;10.100;2022-12-10T00:05:07;27.77;;;14.30;;
58842;SDS011;44614;54.356;10.100;2022-12-10T00:07:33;23.23;;;10.18;;
58842;SDS011;44614;54.356;10.100;2022-12-10T00:09:58;28.30;;;12.63;;
58842;SDS011;44614;54.356;10.100;2022-12-10T00:12:24;25.23;;;10.70;;
58842;SDS011;44614;54.356;10.100;2022-12-10T00:14:49;22.58;;;9.93;;
58842;SDS011;44614;54.356;10.100;2022-12-10T00:17:14;27.17;;;10.15;;
58842;SDS011;44614;54.356;10.100;2022-12-10T00:19:40;27.03;;;9.90;;
58842;SDS011;44614;54.356;10.100;2022-12-10T00:22:05;26.25;;;10.68;;
58842;SDS011;44614;54.356;10.100;2022-12-10T00:24:30;27.77;;;10.77;;
58842;SDS011;44614;54.356;10.100;2022-12-10T00:26:56;28.17;;;11.40;;
58842;SDS011;44614;54.356;10.100;2022-12-10T00:29:21;28.13;;;11.70;;
58842;SDS011;44614;54.356;10.100;2022-12-10T00:31:47;20.48;;;10.50;;
58842;SDS011;44614;54.356;10.100;2022-12-10T00:34:12;27.40;;;11.05;;
58842;SDS011;44614;54.356;10.100;2022-12-10T00:36:40;27.92;;;12.85;;
58842;SDS011;44614;54.356;10.100;2022-12-10T00:39:07;27.70;;;12.00;;
58842;SDS011;44614;54.356;10.100;2022-12-10T00:41:34;31.13;;;15.57;;
58842;SDS011;44614;54.356;10.100;2022-12-10T00:44:00;29.58;;;13.68;;
58842;SDS011;44614;54.356;10.100;2022-12-10T00:46:25;37.47;;;15.40;;
58842;SDS011;44614;54.356;10.100;2022-12-10T00:48:51;34.05;;;15.48;;
58842;SDS011;44614;54.356;10.100;2022-12-10T00:51:18;31.27;;;15.20;;
58842;SDS011;44614;54.356;10.100;2022-12-10T00:53:45;32.35;;;13.05;;
58842;SDS011;44614;54.356;10.100;2022-12-10T00:56:13;32.30;;;15.38;;
58842;SDS011;44614;54.356;10.100;2022-12-10T00:58:40;31.50;;;14.52;;
58842;SDS011;44614;54.356;10.100;2022-12-10T01:01:06;36.13;;;14.90;;
58842;SDS011;44614;54.356;10.100;2022-12-10T01:03:33;43.10;;;16.38;;
58842;SDS011;44614;54.356;10.100;2022-12-10T01:06:06;39.13;;;16.25;;
58842;SDS011;44614;54.356;10.100;2022-12-10T01:08:33;33.58;;;14.93;;
58842;SDS011;44614;54.356;10.100;2022-12-10T01:10:58;36.97;;;15.30;;
58842;SDS011;44614;54.356;10.100;2022-12-10T01:13:24;39.33;;;17.48;;
58842;SDS011;44614;54.356;10.100;2022-12-10T01:15:49;44.85;;;16.90;;
58842;SDS011;44614;54.356;10.100;2022-12-10T01:18:14;41.70;;;18.10;;
58842;SDS011;44614;54.356;10.100;2022-12-10T01:20:40;35.20;;;15.77;;
58842;SDS011;44614;54.356;10.100;2022-12-10T01:23:05;35.93;;;18.33;;
58842;SDS011;44614;54.356;10.100;2022-12-10T01:25:30;37.83;;;16.80;;
58842;SDS011;44614;54.356;10.100;2022-12-10T01:27:56;33.92;;;15.82;;
58842;SDS011;44614;54.356;10.100;2022-12-10T01:30:21;37.35;;;16.38;;
58842;SDS011;44614;54.356;10.100;2022-12-10T01:32:46;35.23;;;15.47;;
58842;SDS011;44614;54.356;10.100;2022-12-10T01:35:12;39.72;;;15.45;;
58842;SDS011;44614;54.356;10.100;2022-12-10T01:37:37;35.13;;;13.48;;
58842;SDS011;44614;54.356;10.100;2022-12-10T01:40:02;29.57;;;15.47;;
58842;SDS011;44614;54.356;10.100;2022-12-10T01:42:28;38.80;;;16.98;;
58842;SDS011;44614;54.356;10.100;2022-12-10T01:44:56;36.40;;;15.25;;
58842;SDS011;44614;54.356;10.100;2022-12-10T01:47:24;35.55;;;14.60;;
58842;SDS011;44614;54.356;10.100;2022-12-10T01:49:49;34.15;;;15.98;;
58842;SDS011;44614;54.356;10.100;2022-12-10T01:52:15;34.17;;;16.13;;
58842;SDS011;44614;54.356;10.100;2022-12-10T01:54:42;31.10;;;13.60;;
58842;SDS011;44614;54.356;10.100;2022-12-10T01:59:39;31.88;;;12.70;;
58842;SDS011;44614;54.356;10.100;2022-12-10T02:02:24;33.70;;;14.50;;
58842;SDS011;44614;54.356;10.100;2022-12-10T02:12:59;31.08;;;12.30;;
58842;SDS011;44614;54.356;10.100;2022-12-10T02:15:33;31.33;;;13.88;;
58842;SDS011;44614;54.356;10.100;2022-12-10T02:18:07;27.02;;;13.52;;
58842;SDS011;44614;54.356;10.100;2022-12-10T02:20:38;34.08;;;12.95;;
58842;SDS011;44614;54.356;10.100;2022-12-10T02:23:10;27.42;;;13.30;;
58842;SDS011;44614;54.356;10.100;2022-12-10T02:28:45;27.80;;;11.80;;
58842;SDS011;44614;54.356;10.100;2022-12-10T02:31:12;34.40;;;12.73;;
58842;SDS011;44614;54.356;10.100;2022-12-10T02:33:43;24.42;;;13.02;;
58842;SDS011;44614;54.356;10.100;2022-12-10T02:36:13;32.55;;;15.25;;
58842;SDS011;44614;54.356;10.100;2022-12-10T02:38:39;26.92;;;11.45;;
58842;SDS011;44614;54.356;10.100;2022-12-10T02:41:13;31.00;;;13.18;;
58842;SDS011;44614;54.356;10.100;2022-12-10T02:43:43;32.60;;;13.30;;
58842;SDS011;44614;54.356;10.100;2022-12-10T02:46:13;30.70;;;13.43;;
58842;SDS011;44614;54.356;10.100;2022-12-10T02:48:38;34.40;;;14.60;;
58842;SDS011;44614;54.356;10.100;2022-12-10T02:51:05;34.47;;;14.57;;
58842;SDS011;44614;54.356;10.100;2022-12-10T02:53:30;25.20;;;13.07;;
58842;SDS011;44614;54.356;10.100;2022-12-10T03:01:19;27.35;;;12.68;;
58842;SDS011;44614;54.356;10.100;2022-12-10T03:03:56;34.38;;;14.00;;
58842;SDS011;44614;54.356;10.100;2022-12-10T03:09:29;32.58;;;11.90;;
58842;SDS011;44614;54.356;10.100;2022-12-10T03:11:50;28.95;;;15.20;;
58842;SDS011;44614;54.356;10.100;2022-12-10T03:14:25;32.88;;;14.27;;
58842;SDS011;44614;54.356;10.100;2022-12-10T03:16:55;24.45;;;10.20;;
58842;SDS011;44614;54.356;10.100;2022-12-10T03:19:24;28.95;;;12.00;;
58842;SDS011;44614;54.356;10.100;2022-12-10T03:22:01;22.85;;;9.70;;
58842;SDS011;44614;54.356;10.100;2022-12-10T03:24:29;25.88;;;11.25;;
58842;SDS011;44614;54.356;10.100;2022-12-10T03:26:55;28.70;;;12.75;;
58842;SDS011;44614;54.356;10.100;2022-12-10T03:31:51;26.02;;;11.52;;
58842;SDS011;44614;54.356;10.100;2022-12-10T03:34:18;30.83;;;13.93;;
58842;SDS011;44614;54.356;10.100;2022-12-10T03:36:43;31.08;;;14.55;;
58842;SDS011;44614;54.356;10.100;2022-12-10T03:39:09;29.77;;;13.10;;
58842;SDS011;44614;54.356;10.100;2022-12-10T03:41:35;39.10;;;16.33;;
58842;SDS011;44614;54.356;10.100;2022-12-10T03:44:00;32.38;;;12.85;;
58842;SDS011;44614;54.356;10.100;2022-12-10T03:46:27;23.52;;;11.07;;
58842;SDS011;44614;54.356;10.100;2022-12-10T03:48:54;35.45;;;15.07;;
58842;SDS011;44614;54.356;10.100;2022-12-10T03:51:20;33.60;;;13.50;;
58842;SDS011;44614;54.356;10.100;2022-12-10T03:53:46;25.70;;;11.30;;
58842;SDS011;44614;54.356;10.100;2022-12-10T03:56:13;34.15;;;12.93;;
58842;SDS011;44614;54.356;10.100;2022-12-10T03:58:39;30.38;;;13.18;;
58842;SDS011;44614;54.356;10.100;2022-12-10T04:01:04;34.20;;;12.45;;
58842;SDS011;44614;54.356;10.100;2022-12-10T04:03:30;32.10;;;12.75;;
58842;SDS011;44614;54.356;10.100;2022-12-10T04:06:00;31.67;;;13.13;;
58842;SDS011;44614;54.356;10.100;2022-12-10T04:08:27;28.35;;;11.77;;
58842;SDS011;44614;54.356;10.100;2022-12-10T04:10:52;34.38;;;13.43;;
58842;SDS011;44614;54.356;10.100;2022-12-10T04:13:18;24.03;;;11.30;;
58842;SDS011;44614;54.356;10.100;2022-12-10T04:16:01;28.50;;;12.00;;
58842;SDS011;44614;54.356;10.100;2022-12-10T04:21:27;28.55;;;13.07;;
58842;SDS011;44614;54.356;10.100;2022-12-10T04:24:12;27.35;;;14.40;;
58842;SDS011;44614;54.356;10.100;2022-12-10T04:26:57;29.52;;;11.20;;
58842;SDS011;44614;54.356;10.100;2022-12-10T04:29:27;29.25;;;11.63;;
58842;SDS011;44614;54.356;10.100;2022-12-10T04:31:54;23.90;;;10.77;;
58842;SDS011;44614;54.356;10.100;2022-12-10T04:34:20;27.38;;;10.82;;
58842;SDS011;44614;54.356;10.100;2022-12-10T04:36:46;24.98;;;11.57;;
58842;SDS011;44614;54.356;10.100;2022-12-10T04:39:12;32.88;;;12.65;;
58842;SDS011;44614;54.356;10.100;2022-12-10T04:41:39;25.40;;;12.55;;
58842;SDS011;44614;54.356;10.100;2022-12-10T04:44:06;25.38;;;11.07;;
58842;SDS011;44614;54.356;10.100;2022-12-10T04:46:31;25.67;;;11.60;;
58842;SDS011;44614;54.356;10.100;2022-12-10T04:48:57;21.02;;;11.25;;
58842;SDS011;44614;54.356;10.100;2022-12-10T04:51:22;22.33;;;10.77;;
58842;SDS011;44614;54.356;10.100;2022-12-10T04:53:47;17.77;;;8.80;;
58842;SDS011;44614;54.356;10.100;2022-12-10T04:56:13;24.03;;;10.53;;
58842;SDS011;44614;54.356;10.100;2022-12-10T04:58:38;25.23;;;12.05;;
58842;SDS011;44614;54.356;10.100;2022-12-10T05:01:04;28.15;;;11.45;;
58842;SDS011;44614;54.356;10.100;2022-12-10T05:03:32;28.58;;;13.88;;
58842;SDS011;44614;54.356;10.100;2022-12-10T05:06:02;22.92;;;10.02;;
58842;SDS011;44614;54.356;10.100;2022-12-10T05:08:33;30.70;;;12.35;;
58842;SDS011;44614;54.356;10.100;2022-12-10T05:11:03;26.27;;;12.00;;
58842;SDS011;44614;54.356;10.100;2022-12-10T05:13:30;21.77;;;9.32;;
58842;SDS011;44614;54.356;10.100;2022-12-10T05:15:55;20.52;;;10.55;;
58842;SDS011;44614;54.356;10.100;2022-12-10T05:18:22;27.07;;;11.10;;
58842;SDS011;44614;54.356;10.100;2022-12-10T05:20:47;22.67;;;10.10;;
58842;SDS011;44614;54.356;10.100;2022-12-10T05:23:13;20.08;;;11.18;;
58842;SDS011;44614;54.356;10.100;2022-12-10T05:26:00;20.70;;;9.88;;
58842;SDS011;44614;54.356;10.100;2022-12-10T05:28:30;18.27;;;8.77;;
58842;SDS011;44614;54.356;10.100;2022-12-10T05:30:58;24.83;;;10.43;;
58842;SDS011;44614;54.356;10.100;2022-12-10T05:33:24;21.92;;;11.40;;
58842;SDS011;44614;54.356;10.100;2022-12-10T05:38:22;27.38;;;11.27;;
58842;SDS011;44614;54.356;10.100;2022-12-10T05:40:47;26.38;;;10.13;;
58842;SDS011;44614;54.356;10.100;2022-12-10T05:43:13;28.73;;;11.63;;
58842;SDS011;44614;54.356;10.100;2022-12-10T05:45:38;27.10;;;12.65;;
58842;SDS011;44614;54.356;10.100;2022-12-10T05:48:04;21.15;;;10.38;;
58842;SDS011;44614;54.356;10.100;2022-12-10T05:50:30;23.70;;;10.60;;
58842;SDS011;44614;54.356;10.100;2022-12-10T05:52:56;27.65;;;11.85;;
58842;SDS011;44614;54.356;10.100;2022-12-10T05:55:22;28.50;;;11.50;;
58842;SDS011;44614;54.356;10.100;2022-12-10T05:57:47;27.70;;;11.93;;
58842;SDS011;44614;54.356;10.100;2022-12-10T06:00:12;25.93;;;10.83;;
58842;SDS011;44614;54.356;10.100;2022-12-10T06:02:38;23.45;;;12.70;;
58842;SDS011;44614;54.356;10.100;2022-12-10T06:05:03;24.65;;;11.77;;
58842;SDS011;44614;54.356;10.100;2022-12-10T06:07:29;29.73;;;12.90;;
58842;SDS011;44614;54.356;10.100;2022-12-10T06:09:55;27.90;;;11.98;;
58842;SDS011;44614;54.356;10.100;2022-12-10T06:12:20;24.23;;;12.85;;
58842;SDS011;44614;54.356;10.100;2022-12-10T06:14:46;29.73;;;12.77;;
58842;SDS011;44614;54.356;10.100;2022-12-10T06:17:11;23.73;;;11.55;;
58842;SDS011;44614;54.356;10.100;2022-12-10T06:19:37;23.13;;;12.23;;
58842;SDS011;44614;54.356;10.100;2022-12-10T06:22:02;23.13;;;11.93;;
58842;SDS011;44614;54.356;10.100;2022-12-10T06:24:28;24.52;;;11.05;;
58842;SDS011;44614;54.356;10.100;2022-12-10T06:26:54;25.92;;;12.38;;
58842;SDS011;44614;54.356;10.100;2022-12-10T06:29:19;29.42;;;11.55;;
58842;SDS011;44614;54.356;10.100;2022-12-10T06:31:45;26.00;;;11.23;;
58842;SDS011;44614;54.356;10.100;2022-12-10T06:34:10;28.40;;;10.95;;
58842;SDS011;44614;54.356;10.100;2022-12-10T06:36:35;33.08;;;12.00;;
58842;SDS011;44614;54.356;10.100;2022-12-10T06:39:01;29.73;;;12.90;;
58842;SDS011;44614;54.356;10.100;2022-12-10T06:41:26;31.13;;;14.90;;
58842;SDS011;44614;54.356;10.100;2022-12-10T06:43:52;26.27;;;12.23;;
58842;SDS011;44614;54.356;10.100;2022-12-10T06:46:18;33.53;;;12.27;;
58842;SDS011;44614;54.356;10.100;2022-12-10T06:48:45;30.15;;;14.35;;
58842;SDS011;44614;54.356;10.100;2022-12-10T06:51:12;28.33;;;14.02;;
58842;SDS011;44614;54.356;10.100;2022-12-10T06:53:41;28.48;;;12.18;;
58842;SDS011;44614;54.356;10.100;2022-12-10T06:56:07;25.13;;;11.80;;
58842;SDS011;44614;54.356;10.100;2022-12-10T06:58:37;32.30;;;12.50;;
58842;SDS011;44614;54.356;10.100;2022-12-10T07:01:09;25.20;;;10.52;;
58842;SDS011;44614;54.356;10.100;2022-12-10T07:03:52;23.02;;;11.13;;
58842;SDS011;44614;54.356;10.100;2022-12-10T07:06:20;27.17;;;11.27;;
58842;SDS011;44614;54.356;10.100;2022-12-10T07:08:47;19.50;;;8.80;;
58842;SDS011;44614;54.356;10.100;2022-12-10T07:11:14;21.67;;;11.35;;
58842;SDS011;44614;54.356;10.100;2022-12-10T07:13:41;28.65;;;10.32;;
58842;SDS011;44614;54.356;10.100;2022-12-10T07:16:17;27.90;;;12.45;;
58842;SDS011;44614;54.356;10.100;2022-12-10T07:18:47;30.15;;;12.10;;
58842;SDS011;44614;54.356;10.100;2022-12-10T07:21:47;23.83;;;11.20;;
58842;SDS011;44614;54.356;10.100;2022-12-10T07:24:09;23.23;;;11.13;;
58842;SDS011;44614;54.356;10.100;2022-12-10T07:26:36;23.55;;;12.15;;
58842;SDS011;44614;54.356;10.100;2022-12-10T07:29:04;23.77;;;10.18;;
58842;SDS011;44614;54.356;10.100;2022-12-10T07:31:31;21.55;;;8.90;;
58842;SDS011;44614;54.356;10.100;2022-12-10T07:33:57;21.65;;;10.98;;
58842;SDS011;44614;54.356;10.100;2022-12-10T07:36:23;30.43;;;13.13;;
58842;SDS011;44614;54.356;10.100;2022-12-10T07:38:50;22.40;;;10.50;;
58842;SDS011;44614;54.356;10.100;2022-12-10T07:41:19;25.58;;;11.30;;
58842;SDS011;44614;54.356;10.100;2022-12-10T07:43:45;21.65;;;9.90;;
58842;SDS011;44614;54.356;10.100;2022-12-10T07:46:18;27.40;;;11.23;;
58842;SDS011;44614;54.356;10.100;2022-12-10T07:48:46;24.45;;;11.60;;
58842;SDS011;44614;54.356;10.100;2022-12-10T07:51:13;20.75;;;10.88;;
58842;SDS011;44614;54.356;10.100;2022-12-10T07:53:39;20.53;;;8.70;;
58842;SDS011;44614;54.356;10.100;2022-12-10T07:56:05;23.23;;;8.77;;
58842;SDS011;44614;54.356;10.100;2022-12-10T07:58:31;20.45;;;9.82;;
58842;SDS011;44614;54.356;10.100;2022-12-10T08:00:57;20.95;;;9.20;;
58842;SDS011;44614;54.356;10.100;2022-12-10T08:03:22;23.15;;;11.27;;
58842;SDS011;44614;54.356;10.100;2022-12-10T08:05:49;28.93;;;9.90;;
58842;SDS011;44614;54.356;10.100;2022-12-10T08:08:14;24.42;;;10.32;;
58842;SDS011;44614;54.356;10.100;2022-12-10T08:10:39;22.33;;;9.00;;
58842;SDS011;44614;54.356;10.100;2022-12-10T08:13:05;21.10;;;10.55;;
58842;SDS011;44614;54.356;10.100;2022-12-10T08:15:31;20.83;;;9.48;;
58842;SDS011;44614;54.356;10.100;2022-12-10T08:17:57;19.23;;;9.60;;
58842;SDS011;44614;54.356;10.100;2022-12-10T08:20:23;16.85;;;9.23;;
58842;SDS011;44614;54.356;10.100;2022-12-10T08:22:49;26.80;;;10.13;;
58842;SDS011;44614;54.356;10.100;2022-12-10T08:25:14;20.70;;;9.35;;
58842;SDS011;44614;54.356;10.100;2022-12-10T08:27:40;15.23;;;8.02;;
58842;SDS011;44614;54.356;10.100;2022-12-10T08:30:05;25.50;;;10.13;;
58842;SDS011;44614;54.356;10.100;2022-12-10T08:32:31;20.85;;;9.15;;
58842;SDS011;44614;54.356;10.100;2022-12-10T08:34:56;23.20;;;9.93;;
58842;SDS011;44614;54.356;10.100;2022-12-10T08:37:22;20.40;;;9.73;;
58842;SDS011;44614;54.356;10.100;2022-12-10T08:39:47;20.15;;;8.55;;
58842;SDS011;44614;54.356;10.100;2022-12-10T08:42:12;20.23;;;10.57;;
58842;SDS011;44614;54.356;10.100;2022-12-10T08:44:38;19.17;;;8.75;;
58842;SDS011;44614;54.356;10.100;2022-12-10T08:47:03;20.65;;;9.50;;
58842;SDS011;44614;54.356;10.100;2022-12-10T08:49:28;20.27;;;9.02;;
58842;SDS011;44614;54.356;10.100;2022-12-10T08:51:54;20.10;;;10.50;;
58842;SDS011;44614;54.356;10.100;2022-12-10T08:54:19;18.65;;;8.23;;
58842;SDS011;44614;54.356;10.100;2022-12-10T08:56:45;17.80;;;8.70;;
58842;SDS011;44614;54.356;10.100;2022-12-10T08:59:10;23.25;;;9.18;;
58842;SDS011;44614;54.356;10.100;2022-12-10T09:01:35;21.80;;;8.98;;
58842;SDS011;44614;54.356;10.100;2022-12-10T09:04:01;23.57;;;9.20;;
58842;SDS011;44614;54.356;10.100;2022-12-10T09:06:26;17.75;;;9.73;;
58842;SDS011;44614;54.356;10.100;2022-12-10T09:08:53;15.00;;;7.30;;
58842;SDS011;44614;54.356;10.100;2022-12-10T09:11:23;23.73;;;11.20;;
58842;SDS011;44614;54.356;10.100;2022-12-10T09:13:50;21.58;;;9.60;;
58842;SDS011;44614;54.356;10.100;2022-12-10T09:16:16;19.90;;;10.50;;
58842;SDS011;44614;54.356;10.100;2022-12-10T09:18:41;20.67;;;9.40;;
58842;SDS011;44614;54.356;10.100;2022-12-10T09:21:08;23.25;;;10.27;;
58842;SDS011;44614;54.356;10.100;2022-12-10T09:26:00;17.17;;;7.78;;
58842;SDS011;44614;54.356;10.100;2022-12-10T09:28:25;15.15;;;7.55;;
58842;SDS011;44614;54.356;10.100;2022-12-10T09:30:57;18.58;;;8.38;;
58842;SDS011;44614;54.356;10.100;2022-12-10T09:33:25;22.15;;;9.48;;
58842;SDS011;44614;54.356;10.100;2022-12-10T09:35:51;18.23;;;8.32;;
58842;SDS011;44614;54.356;10.100;2022-12-10T09:38:17;20.33;;;9.20;;
58842;SDS011;44614;54.356;10.100;2022-12-10T09:40:46;18.20;;;8.68;;
58842;SDS011;44614;54.356;10.100;2022-12-10T09:43:24;18.90;;;8.77;;
58842;SDS011;44614;54.356;10.100;2022-12-10T09:52:15;20.73;;;10.15;;
58842;SDS011;44614;54.356;10.100;2022-12-10T09:54:45;21.58;;;9.48;;
58842;SDS011;44614;54.356;10.100;2022-12-10T09:57:18;22.40;;;9.50;;
58842;SDS011;44614;54.356;10.100;2022-12-10T09:59:49;22.13;;;9.70;;
58842;SDS011;44614;54.356;10.100;2022-12-10T10:04:50;17.75;;;7.90;;
58842;SDS011;44614;54.356;10.100;2022-12-10T10:07:19;21.40;;;8.38;;
58842;SDS011;44614;54.356;10.100;2022-12-10T10:09:47;20.80;;;8.45;;
58842;SDS011;44614;54.356;10.100;2022-12-10T10:12:14;22.08;;;10.40;;
58842;SDS011;44614;54.356;10.100;2022-12-10T10:14:40;22.85;;;10.57;;
58842;SDS011;44614;54.356;10.100;2022-12-10T10:17:25;19.58;;;9.15;;
58842;SDS011;44614;54.356;10.100;2022-12-10T10:19:59;25.42;;;9.40;;
58842;SDS011;44614;54.356;10.100;2022-12-10T10:22:25;20.23;;;8.82;;
58842;SDS011;44614;54.356;10.100;2022-12-10T10:24:51;22.73;;;12.32;;
58842;SDS011;44614;54.356;10.100;2022-12-10T10:27:21;17.90;;;8.43;;
58842;SDS011;44614;54.356;10.100;2022-12-10T10:29:49;18.52;;;9.63;;
58842;SDS011;44614;54.356;10.100;2022-12-10T10:32:17;21.17;;;10.05;;
58842;SDS011;44614;54.356;10.100;2022-12-10T10:34:45;21.55;;;9.73;;
58842;SDS011;44614;54.356;10.100;2022-12-10T10:37:15;20.67;;;10.40;;
58842;SDS011;44614;54.356;10.100;2022-12-10T10:39:46;17.17;;;7.95;;
58842;SDS011;44614;54.356;10.100;2022-12-10T10:42:14;23.38;;;9.48;;
58842;SDS011;44614;54.356;10.100;2022-12-10T10:44:49;20.30;;;7.90;;
58842;SDS011;44614;54.356;10.100;2022-12-10T10:47:25;18.88;;;8.40;;
58842;SDS011;44614;54.356;10.100;2022-12-10T10:49:53;21.75;;;8.73;;
58842;SDS011;44614;54.356;10.100;2022-12-10T10:52:18;17.73;;;8.65;;
58842;SDS011;44614;54.356;10.100;2022-12-10T10:54:44;19.95;;;8.70;;
58842;SDS011;44614;54.356;10.100;2022-12-10T10:57:21;19.08;;;7.95;;
58842;SDS011;44614;54.356;10.100;2022-12-10T10:59:53;24.08;;;9.02;;
58842;SDS011;44614;54.356;10.100;2022-12-10T11:02:29;18.85;;;8.75;;
58842;SDS011;44614;54.356;10.100;2022-12-10T11:04:58;19.83;;;9.37;;
58842;SDS011;44614;54.356;10.100;2022-12-10T11:07:38;17.95;;;7.65;;
58842;SDS011;44614;54.356;10.100;2022-12-10T11:10:26;22.83;;;9.60;;
58842;SDS011;44614;54.356;10.100;2022-12-10T11:12:59;18.55;;;8.20;;
58842;SDS011;44614;54.356;10.100;2022-12-10T11:15:31;22.27;;;8.40;;
58842;SDS011;44614;54.356;10.100;2022-12-10T11:18:02;17.25;;;8.57;;
58842;SDS011;44614;54.356;10.100;2022-12-10T11:20:46;15.55;;;7.90;;
58842;SDS011;44614;54.356;10.100;2022-12-10T11:23:26;23.13;;;9.95;;
58842;SDS011;44614;54.356;10.100;2022-12-10T11:25:57;19.80;;;9.02;;
58842;SDS011;44614;54.356;10.100;2022-12-10T11:30:52;20.67;;;8.43;;
58842;SDS011;44614;54.356;10.100;2022-12-10T11:36:32;26.30;;;9.40;;
58842;SDS011;44614;54.356;10.100;2022-12-10T11:42:28;19.60;;;9.23;;
58842;SDS011;44614;54.356;10.100;2022-12-10T11:45:12;17.90;;;8.55;;
58842;SDS011;44614;54.356;10.100;2022-12-10T11:51:05;18.75;;;8.48;;
58842;SDS011;44614;54.356;10.100;2022-12-10T11:56:37;20.70;;;9.30;;
58842;SDS011;44614;54.356;10.100;2022-12-10T11:59:14;16.65;;;8.10;;
58842;SDS011;44614;54.356;10.100;2022-12-10T12:15:03;18.67;;;7.65;;
58842;SDS011;44614;54.356;10.100;2022-12-10T12:17:43;18.25;;;7.75;;
58842;SDS011;44614;54.356;10.100;2022-12-10T12:22:53;15.65;;;7.68;;
58842;SDS011;44614;54.356;10.100;2022-12-10T12:25:37;17.55;;;7.80;;
58842;SDS011;44614;54.356;10.100;2022-12-10T12:30:53;19.20;;;7.60;;
58842;SDS011;44614;54.356;10.100;2022-12-10T12:33:32;18.13;;;7.20;;
58842;SDS011;44614;54.356;10.100;2022-12-10T12:36:16;24.10;;;8.93;;
58842;SDS011;44614;54.356;10.100;2022-12-10T12:38:55;20.13;;;9.43;;
58842;SDS011;44614;54.356;10.100;2022-12-10T12:44:16;12.68;;;6.15;;
58842;SDS011;44614;54.356;10.100;2022-12-10T12:46:47;17.60;;;8.02;;
58842;SDS011;44614;54.356;10.100;2022-12-10T12:49:18;17.90;;;7.17;;
58842;SDS011;44614;54.356;10.100;2022-12-10T12:52:10;17.45;;;8.98;;
58842;SDS011;44614;54.356;10.100;2022-12-10T12:54:38;21.73;;;8.68;;
58842;SDS011;44614;54.356;10.100;2022-12-10T12:57:12;20.55;;;7.85;;
58842;SDS011;44614;54.356;10.100;2022-12-10T13:00:21;19.52;;;7.43;;
58842;SDS011;44614;54.356;10.100;2022-12-10T13:05:42;13.57;;;7.45;;
58842;SDS011;44614;54.356;10.100;2022-12-10T13:11:00;15.48;;;7.13;;
58842;SDS011;44614;54.356;10.100;2022-12-10T13:13:42;15.77;;;7.20;;
58842;SDS011;44614;54.356;10.100;2022-12-10T13:27:27;17.67;;;7.05;;
58842;SDS011;44614;54.356;10.100;2022-12-10T13:32:46;16.95;;;6.82;;
58842;SDS011;44614;54.356;10.100;2022-12-10T13:43:23;15.50;;;7.57;;
58842;SDS011;44614;54.356;10.100;2022-12-10T13:48:55;16.77;;;7.85;;
58842;SDS011;44614;54.356;10.100;2022-12-10T13:54:08;17.45;;;7.78;;
58842;SDS011;44614;54.356;10.100;2022-12-10T13:57:07;16.63;;;9.07;;
58842;SDS011;44614;54.356;10.100;2022-12-10T14:02:21;15.67;;;7.50;;
58842;SDS011;44614;54.356;10.100;2022-12-10T14:04:54;21.58;;;9.20;;
58842;SDS011;44614;54.356;10.100;2022-12-10T14:07:21;23.55;;;8.45;;
58842;SDS011;44614;54.356;10.100;2022-12-10T14:09:54;19.35;;;8.85;;
58842;SDS011;44614;54.356;10.100;2022-12-10T14:12:30;18.20;;;7.68;;
58842;SDS011;44614;54.356;10.100;2022-12-10T14:15:02;16.83;;;8.60;;
58842;SDS011;44614;54.356;10.100;2022-12-10T14:17:34;16.75;;;8.35;;
58842;SDS011;44614;54.356;10.100;2022-12-10T14:20:05;14.43;;;7.45;;
58842;SDS011;44614;54.356;10.100;2022-12-10T14:22:43;18.42;;;9.80;;
58842;SDS011;44614;54.356;10.100;2022-12-10T14:25:15;25.65;;;9.52;;
58842;SDS011;44614;54.356;10.100;2022-12-10T14:27:43;22.48;;;9.75;;
58842;SDS011;44614;54.356;10.100;2022-12-10T14:32:53;16.98;;;7.97;;
58842;SDS011;44614;54.356;10.100;2022-12-10T14:35:23;16.05;;;7.65;;
58842;SDS011;44614;54.356;10.100;2022-12-10T14:37:49;19.88;;;6.40;;
58842;SDS011;44614;54.356;10.100;2022-12-10T14:40:27;18.38;;;9.15;;
58842;SDS011;44614;54.356;10.100;2022-12-10T14:43:03;17.13;;;7.00;;
58842;SDS011;44614;54.356;10.100;2022-12-10T14:45:44;14.35;;;6.53;;
58842;SDS011;44614;54.356;10.100;2022-12-10T14:48:13;15.15;;;6.82;;
58842;SDS011;44614;54.356;10.100;2022-12-10T14:50:41;15.20;;;6.50;;
58842;SDS011;44614;54.356;10.100;2022-12-10T14:53:14;17.10;;;7.60;;
58842;SDS011;44614;54.356;10.100;2022-12-10T14:55:42;21.23;;;8.88;;
58842;SDS011;44614;54.356;10.100;2022-12-10T14:58:13;19.23;;;8.45;;
58842;SDS011;44614;54.356;10.100;2022-12-10T15:00:42;17.15;;;8.18;;
58842;SDS011;44614;54.356;10.100;2022-12-10T15:03:09;15.85;;;7.13;;
58842;SDS011;44614;54.356;10.100;2022-12-10T15:05:36;16.20;;;7.72;;
58842;SDS011;44614;54.356;10.100;2022-12-10T15:08:03;17.13;;;7.95;;
58842;SDS011;44614;54.356;10.100;2022-12-10T15:10:40;38.33;;;17.15;;
58842;SDS011;44614;54.356;10.100;2022-12-10T15:13:12;25.90;;;11.27;;
58842;SDS011;44614;54.356;10.100;2022-12-10T15:15:48;19.90;;;10.00;;
58842;SDS011;44614;54.356;10.100;2022-12-10T15:18:18;18.83;;;9.27;;
58842;SDS011;44614;54.356;10.100;2022-12-10T15:20:50;15.52;;;8.63;;
58842;SDS011;44614;54.356;10.100;2022-12-10T15:23:30;16.77;;;8.98;;
58842;SDS011;44614;54.356;10.100;2022-12-10T15:26:00;12.82;;;7.30;;
58842;SDS011;44614;54.356;10.100;2022-12-10T15:28:36;18.55;;;9.07;;
58842;SDS011;44614;54.356;10.100;2022-12-10T15:36:33;16.07;;;6.77;;
58842;SDS011;44614;54.356;10.100;2022-12-10T15:39:48;15.90;;;7.55;;
58842;SDS011;44614;54.356;10.100;2022-12-10T15:42:00;13.23;;;6.70;;
58842;SDS011;44614;54.356;10.100;2022-12-10T15:49:38;18.55;;;7.05;;
58842;SDS011;44614;54.356;10.100;2022-12-10T15:52:03;18.33;;;7.70;;
58842;SDS011;44614;54.356;10.100;2022-12-10T15:54:33;18.75;;;8.40;;
58842;SDS011;44614;54.356;10.100;2022-12-10T15:57:12;14.30;;;7.30;;
58842;SDS011;44614;54.356;10.100;2022-12-10T15:59:40;19.40;;;8.27;;
58842;SDS011;44614;54.356;10.100;2022-12-10T16:04:53;18.63;;;8.55;;
58842;SDS011;44614;54.356;10.100;2022-12-10T16:07:18;19.20;;;8.18;;
58842;SDS011;44614;54.356;10.100;2022-12-10T16:09:44;21.77;;;11.32;;
58842;SDS011;44614;54.356;10.100;2022-12-10T16:12:13;15.93;;;8.13;;
58842;SDS011;44614;54.356;10.100;2022-12-10T16:14:46;17.30;;;8.70;;
58842;SDS011;44614;54.356;10.100;2022-12-10T16:17:14;15.45;;;7.05;;
58842;SDS011;44614;54.356;10.100;2022-12-10T16:19:40;18.75;;;9.48;;
58842;SDS011;44614;54.356;10.100;2022-12-10T16:22:05;15.75;;;7.43;;
58842;SDS011;44614;54.356;10.100;2022-12-10T16:24:31;23.98;;;10.60;;
58842;SDS011;44614;54.356;10.100;2022-12-10T16:26:56;39.83;;;17.80;;
58842;SDS011;44614;54.356;10.100;2022-12-10T16:29:21;25.23;;;10.20;;
58842;SDS011;44614;54.356;10.100;2022-12-10T16:31:47;17.83;;;8.57;;
58842;SDS011;44614;54.356;10.100;2022-12-10T16:34:12;17.27;;;9.52;;